createdAt,value
2018-04-22T00:02:03.794Z,96635.45
2018-04-22T00:04:29.723Z,96633.20
2018-04-22T00:06:57.439Z,96635.95
2018-04-22T00:09:23.349Z,96638.68
2018-04-22T00:11:52.415Z,96633.81
2018-04-22T00:14:18.323Z,96630.77
2018-04-22T00:16:47.909Z,96629.23
2018-04-22T00:19:13.815Z,96625.84
2018-04-22T00:21:42.750Z,96623.52
2018-04-22T00:24:08.621Z,96616.13
2018-04-22T00:26:35.770Z,96615.17
2018-04-22T00:29:01.627Z,96610.19
2018-04-22T00:31:27.531Z,96613.21
2018-04-22T00:33:53.421Z,96609.91
2018-04-22T00:36:19.352Z,96591.91
2018-04-22T00:38:48.311Z,96611.77
2018-04-22T00:41:14.235Z,96602.39
2018-04-22T00:43:44.103Z,96600.39
2018-04-22T00:46:10.031Z,96601.14
2018-04-22T00:48:36.938Z,96603.06
2018-04-22T00:51:02.852Z,96604.20
2018-04-22T00:53:44.507Z,96596.48
2018-04-22T00:56:10.430Z,96594.09
2018-04-22T00:58:36.367Z,96590.65
2018-04-22T01:01:02.286Z,96595.63
2018-04-22T01:03:28.187Z,96591.78
2018-04-22T01:05:54.091Z,96586.30
2018-04-22T01:08:19.994Z,96581.73
2018-04-22T01:10:45.929Z,96580.89
2018-04-22T01:13:11.847Z,96583.67
2018-04-22T01:15:37.743Z,96573.33
2018-04-22T01:18:03.679Z,96587.53
2018-04-22T01:20:29.567Z,96570.05
2018-04-22T01:22:55.462Z,96576.45
2018-04-22T01:25:21.807Z,96572.91
2018-04-22T01:27:47.691Z,96581.28
2018-04-22T01:30:17.313Z,96582.52
2018-04-22T01:32:43.183Z,96575.10
2018-04-22T01:35:12.718Z,96574.56
2018-04-22T01:37:38.615Z,96578.50
2018-04-22T01:40:06.455Z,96575.95
2018-04-22T01:42:32.398Z,96577.84
2018-04-22T01:44:58.320Z,96572.61
2018-04-22T01:47:24.193Z,96573.98
2018-04-22T01:49:50.072Z,96573.05
2018-04-22T01:52:19.642Z,96572.55
2018-04-22T01:54:45.676Z,96574.20
2018-04-22T01:57:13.516Z,96573.34
2018-04-22T01:59:39.443Z,96572.84
2018-04-22T02:02:08.988Z,96574.70
2018-04-22T02:04:34.879Z,96574.71
2018-04-22T02:07:02.219Z,96573.77
2018-04-22T02:09:28.153Z,96578.08
2018-04-22T02:11:58.065Z,96579.34
2018-04-22T02:14:23.969Z,96578.95
2018-04-22T02:16:53.205Z,96572.03
2018-04-22T02:19:19.088Z,96567.16
2018-04-22T02:21:45.035Z,96561.48
2018-04-22T02:24:10.916Z,96562.06
2018-04-22T02:26:36.804Z,96559.75
2018-04-22T02:29:03.576Z,96558.09
2018-04-22T02:31:29.465Z,96560.30
2018-04-22T02:33:58.616Z,96563.83
2018-04-22T02:36:24.476Z,96560.84
2018-04-22T02:38:54.299Z,96560.13
2018-04-22T02:41:20.196Z,96554.61
2018-04-22T02:43:49.197Z,96550.64
2018-04-22T02:46:15.080Z,96552.42
2018-04-22T02:48:42.857Z,96548.31
2018-04-22T02:51:08.792Z,96547.54
2018-04-22T02:53:38.027Z,96542.20
2018-04-22T02:56:03.947Z,96540.77
2018-04-22T02:58:29.860Z,96541.17
2018-04-22T03:00:55.749Z,96536.10
2018-04-22T03:03:21.635Z,96534.80
2018-04-22T03:05:49.304Z,96531.84
2018-04-22T03:08:15.235Z,96533.52
2018-04-22T03:10:44.178Z,96533.51
2018-04-22T03:13:10.086Z,96531.78
2018-04-22T03:15:39.227Z,96532.80
2018-04-22T03:18:05.133Z,96519.72
2018-04-22T03:20:34.300Z,96522.27
2018-04-22T03:23:00.193Z,96527.73
2018-04-22T03:25:29.123Z,96520.89
2018-04-22T03:27:54.987Z,96528.16
2018-04-22T03:30:22.328Z,96523.71
2018-04-22T03:32:48.211Z,96517.28
2018-04-22T03:35:14.143Z,96512.75
2018-04-22T03:37:40.063Z,96505.44
2018-04-22T03:40:05.964Z,96512.11
2018-04-22T03:42:34.031Z,96510.98
2018-04-22T03:44:59.944Z,96502.29
2018-04-22T03:47:29.256Z,96504.30
2018-04-22T03:49:55.172Z,96500.63
2018-04-22T03:52:24.393Z,96500.73
2018-04-22T03:54:50.275Z,96501.27
2018-04-22T03:57:18.303Z,96495.25
2018-04-22T03:59:44.220Z,96492.53
2018-04-22T04:02:13.663Z,96498.52
2018-04-22T04:04:39.546Z,96499.84
2018-04-22T04:07:07.346Z,96502.33
2018-04-22T04:09:33.318Z,96489.95
2018-04-22T04:11:59.185Z,96491.54
2018-04-22T04:14:25.064Z,96488.22
2018-04-22T04:16:50.970Z,96495.29
2018-04-22T04:19:32.307Z,96492.67
2018-04-22T04:22:10.545Z,96489.20
2018-04-22T04:24:49.663Z,96491.84
2018-04-22T04:30:21.311Z,96486.58
2018-04-22T04:32:47.231Z,96488.50
2018-04-22T04:35:16.295Z,96484.16
2018-04-22T04:37:42.167Z,96480.58
2018-04-22T04:40:09.330Z,96480.90
2018-04-22T04:42:35.227Z,96482.28
2018-04-22T04:45:05.016Z,96475.92
2018-04-22T04:47:30.931Z,96470.64
2018-04-22T04:49:58.584Z,96478.74
2018-04-22T04:52:24.481Z,96480.05
2018-04-22T04:54:53.347Z,96486.77
2018-04-22T04:57:19.234Z,96487.20
2018-04-22T04:59:47.978Z,96484.41
2018-04-22T05:02:13.871Z,96487.66
2018-04-22T05:04:42.752Z,96486.98
2018-04-22T05:07:08.658Z,96489.60
2018-04-22T05:09:34.517Z,96497.05
2018-04-22T05:12:00.456Z,96496.45
2018-04-22T05:14:26.795Z,96494.02
2018-04-22T05:16:55.782Z,96492.52
2018-04-22T05:19:21.659Z,96489.63
2018-04-22T05:21:50.820Z,96487.43
2018-04-22T05:24:16.731Z,96491.59
2018-04-22T05:26:43.956Z,96495.94
2018-04-22T05:29:09.863Z,96487.21
2018-04-22T05:31:39.009Z,96489.48
2018-04-22T05:34:04.965Z,96492.66
2018-04-22T05:36:34.347Z,96489.77
2018-04-22T05:39:00.246Z,96489.69
2018-04-22T05:41:28.327Z,96488.99
2018-04-22T05:43:54.213Z,96491.49
2018-04-22T05:46:20.115Z,96493.28
2018-04-22T05:48:46.049Z,96495.61
2018-04-22T05:51:11.941Z,96495.06
2018-04-22T05:53:40.958Z,96493.05
2018-04-22T05:56:06.840Z,96488.09
2018-04-22T05:58:35.943Z,96489.14
2018-04-22T06:01:01.862Z,96492.23
2018-04-22T06:03:29.832Z,96486.77
2018-04-22T06:05:55.826Z,96488.21
2018-04-22T06:08:25.548Z,96485.80
2018-04-22T06:10:51.397Z,96487.37
2018-04-22T06:13:20.427Z,96480.94
2018-04-22T06:15:46.331Z,96481.92
2018-04-22T06:18:13.356Z,96482.58
2018-04-22T06:20:39.217Z,96495.24
2018-04-22T06:23:05.112Z,96505.11
2018-04-22T06:25:31.015Z,96508.63
2018-04-22T06:27:56.951Z,96508.49
2018-04-22T06:30:26.154Z,96511.13
2018-04-22T06:32:52.062Z,96515.66
2018-04-22T06:35:19.968Z,96507.55
2018-04-22T06:37:45.942Z,96510.13
2018-04-22T06:40:15.381Z,96504.52
2018-04-22T06:42:41.348Z,96503.60
2018-04-22T06:45:10.396Z,96499.52
2018-04-22T06:47:36.291Z,96496.30
2018-04-22T06:50:05.508Z,96497.14
2018-04-22T06:52:31.424Z,96500.19
2018-04-22T06:54:59.232Z,96501.78
2018-04-22T06:57:25.139Z,96499.25
2018-04-22T06:59:51.021Z,96504.85
2018-04-22T07:02:16.889Z,96503.20
2018-04-22T07:04:42.791Z,96503.85
2018-04-22T07:07:12.036Z,96492.77
2018-04-22T07:09:37.985Z,96494.78
2018-04-22T07:12:05.132Z,96490.72
2018-04-22T07:14:31.032Z,96495.75
2018-04-22T07:16:59.975Z,96492.30
2018-04-22T07:19:25.927Z,96494.87
2018-04-22T07:21:54.926Z,96494.57
2018-04-22T07:24:20.871Z,96495.34
2018-04-22T07:26:50.399Z,96501.54
2018-04-22T07:29:16.280Z,96497.65
2018-04-22T07:31:45.380Z,96501.41
2018-04-22T07:34:11.276Z,96499.34
2018-04-22T07:36:37.171Z,96505.41
2018-04-22T07:39:03.101Z,96504.95
2018-04-22T07:41:29.025Z,96506.62
2018-04-22T07:43:55.475Z,96516.05
2018-04-22T07:46:21.441Z,96505.52
2018-04-22T07:48:50.196Z,96508.95
2018-04-22T07:51:16.059Z,96511.28
2018-04-22T07:53:44.893Z,96503.63
2018-04-22T07:56:10.816Z,96504.85
2018-04-22T07:58:39.636Z,96505.80
2018-04-22T08:01:05.543Z,96502.05
2018-04-22T08:03:34.410Z,96503.63
2018-04-22T08:06:00.281Z,96504.38
2018-04-22T08:08:29.053Z,96504.30
2018-04-22T08:10:54.944Z,96506.78
2018-04-22T08:13:20.819Z,96502.09
2018-04-22T08:15:46.752Z,96511.47
2018-04-22T08:18:12.643Z,96507.66
2018-04-22T08:20:42.583Z,96507.09
2018-04-22T08:23:08.470Z,96506.62
2018-04-22T08:25:35.852Z,96505.08
2018-04-22T08:28:01.848Z,96504.19
2018-04-22T08:30:31.434Z,96492.94
2018-04-22T08:32:57.359Z,96501.16
2018-04-22T08:35:26.711Z,96501.85
2018-04-22T08:37:52.613Z,96504.02
2018-04-22T08:40:20.248Z,96501.08
2018-04-22T08:42:46.167Z,96503.42
2018-04-22T08:45:15.347Z,96500.18
2018-04-22T08:47:41.257Z,96498.41
2018-04-22T08:50:07.134Z,96498.05
2018-04-22T08:52:33.040Z,96497.19
2018-04-22T08:54:59.149Z,96496.66
2018-04-22T08:57:28.148Z,96497.47
2018-04-22T08:59:54.010Z,96495.11
2018-04-22T09:02:21.021Z,96495.87
2018-04-22T09:04:46.977Z,96497.02
2018-04-22T09:07:16.091Z,96498.80
2018-04-22T09:09:42.177Z,96496.37
2018-04-22T09:12:11.466Z,96498.12
2018-04-22T09:14:37.362Z,96494.81
2018-04-22T09:17:06.901Z,96495.42
2018-04-22T09:19:32.787Z,96492.72
2018-04-22T09:21:59.890Z,96492.23
2018-04-22T09:24:25.862Z,96496.73
2018-04-22T09:26:51.760Z,96483.93
2018-04-22T09:29:17.670Z,96497.92
2018-04-22T09:31:43.591Z,96495.47
2018-04-22T09:34:13.376Z,96485.73
2018-04-22T09:36:39.492Z,96487.23
2018-04-22T09:39:06.323Z,96489.23
2018-04-22T09:41:32.310Z,96482.98
2018-04-22T09:44:01.783Z,96482.05
2018-04-22T09:46:27.673Z,96487.45
2018-04-22T09:48:56.855Z,96479.00
2018-04-22T09:51:22.792Z,96472.55
2018-04-22T09:53:51.895Z,96474.83
2018-04-22T09:56:17.799Z,96472.08
2018-04-22T09:58:45.000Z,96469.88
2018-04-22T10:01:16.901Z,96470.06
2018-04-22T10:03:42.784Z,96473.27
2018-04-22T10:06:08.663Z,96469.03
2018-04-22T10:08:34.555Z,96471.48
2018-04-22T10:11:00.432Z,96466.41
2018-04-22T10:13:26.338Z,96464.22
2018-04-22T10:15:52.266Z,96452.48
2018-04-22T10:20:59.072Z,96454.25
2018-04-22T10:23:25.045Z,96445.92
2018-04-22T10:25:51.012Z,96447.11
2018-04-22T10:28:16.928Z,96442.05
2018-04-22T10:30:42.817Z,96442.56
2018-04-22T10:33:08.718Z,96442.72
2018-04-22T10:35:34.677Z,96427.06
2018-04-22T10:38:01.380Z,96436.23
2018-04-22T10:40:27.375Z,96438.71
2018-04-22T10:42:53.420Z,96431.33
2018-04-22T10:45:19.316Z,96426.30
2018-04-22T10:47:45.235Z,96432.95
2018-04-22T10:50:11.110Z,96426.75
2018-04-22T10:52:36.981Z,96432.22
2018-04-22T10:55:02.890Z,96405.26
2018-04-22T10:57:32.554Z,96416.74
2018-04-22T10:59:58.466Z,96417.38
2018-04-22T11:02:27.728Z,96418.71
2018-04-22T11:04:53.632Z,96413.22
2018-04-22T11:07:21.210Z,96412.80
2018-04-22T11:09:47.095Z,96406.16
2018-04-22T11:12:16.409Z,96411.56
2018-04-22T11:14:43.037Z,96411.04
2018-04-22T11:17:09.052Z,96406.47
2018-04-22T11:19:34.962Z,96404.53
2018-04-22T11:22:00.963Z,96399.73
2018-04-22T11:24:27.502Z,96393.09
2018-04-22T11:26:53.448Z,96392.67
2018-04-22T11:29:22.943Z,96393.36
2018-04-22T11:31:48.851Z,96391.58
2018-04-22T11:34:17.956Z,96387.18
2018-04-22T11:36:43.845Z,96385.77
2018-04-22T11:39:11.553Z,96396.11
2018-04-22T11:41:37.457Z,96388.98
2018-04-22T11:44:06.892Z,96386.31
2018-04-22T11:46:32.827Z,96386.49
2018-04-22T11:49:02.150Z,96385.11
2018-04-22T11:51:28.090Z,96391.91
2018-04-22T11:53:53.983Z,96389.44
2018-04-22T11:56:19.869Z,96385.19
2018-04-22T11:58:45.854Z,96382.22
2018-04-22T12:01:12.932Z,96377.16
2018-04-22T12:03:38.840Z,96381.34
2018-04-22T12:06:08.362Z,96377.92
2018-04-22T12:08:34.260Z,96375.32
2018-04-22T12:11:03.664Z,96379.42
2018-04-22T12:13:29.595Z,96374.77
2018-04-22T12:15:56.690Z,96368.73
2018-04-22T12:18:22.603Z,96367.55
2018-04-22T12:20:51.539Z,96363.25
2018-04-22T12:23:17.463Z,96356.64
2018-04-22T12:25:46.279Z,96352.11
2018-04-22T12:28:12.171Z,96354.55
2018-04-22T12:30:38.090Z,96347.58
2018-04-22T12:33:03.953Z,96353.06
2018-04-22T12:35:29.900Z,96351.77
2018-04-22T12:37:58.894Z,96353.89
2018-04-22T12:40:24.816Z,96347.07
2018-04-22T12:42:54.655Z,96357.50
2018-04-22T12:45:20.547Z,96359.61
2018-04-22T12:47:48.276Z,96353.33
2018-04-22T12:50:14.195Z,96349.57
2018-04-22T12:52:43.363Z,96356.23
2018-04-22T12:55:09.289Z,96350.77
2018-04-22T12:57:37.088Z,96354.04
2018-04-22T13:00:02.998Z,96353.55
2018-04-22T13:02:32.256Z,96334.89
2018-04-22T13:04:58.131Z,96337.55
2018-04-22T13:07:24.146Z,96337.32
2018-04-22T13:09:50.051Z,96334.67
2018-04-22T13:12:15.950Z,96335.02
2018-04-22T13:14:45.771Z,96327.95
2018-04-22T13:17:11.840Z,96326.85
2018-04-22T13:19:38.872Z,96321.26
2018-04-22T13:22:04.751Z,96323.25
2018-04-22T13:24:34.339Z,96313.84
2018-04-22T13:27:00.261Z,96314.70
2018-04-22T13:29:27.299Z,96305.26
2018-04-22T13:31:53.212Z,96306.20
2018-04-22T13:34:21.963Z,96300.91
2018-04-22T13:36:47.880Z,96297.91
2018-04-22T13:39:16.703Z,96296.25
2018-04-22T13:41:42.571Z,96288.95
2018-04-22T13:44:08.572Z,96293.33
2018-04-22T13:46:34.631Z,96285.25
2018-04-22T13:49:00.569Z,96283.15
2018-04-22T13:51:29.835Z,96282.20
2018-04-22T13:53:56.230Z,96280.33
2018-04-22T13:56:23.343Z,96272.30
2018-04-22T13:58:49.248Z,96266.97
2018-04-22T14:01:18.074Z,96268.47
2018-04-22T14:03:43.979Z,96264.25
2018-04-22T14:06:12.779Z,96262.95
2018-04-22T14:08:38.661Z,96254.23
2018-04-22T14:11:07.432Z,96257.38
2018-04-22T14:13:33.316Z,96252.59
2018-04-22T14:16:02.754Z,96251.58
2018-04-22T14:18:28.709Z,96250.51
2018-04-22T14:20:54.603Z,96246.11
2018-04-22T14:23:20.523Z,96242.59
2018-04-22T14:25:46.453Z,96232.92
2018-04-22T14:28:15.812Z,96239.79
2018-04-22T14:30:41.758Z,96232.32
2018-04-22T14:33:09.261Z,96226.64
2018-04-22T14:35:35.175Z,96225.14
2018-04-22T14:38:03.439Z,96223.72
2018-04-22T14:40:29.395Z,96222.81
2018-04-22T14:42:59.011Z,96222.67
2018-04-22T14:45:38.068Z,96221.57
2018-04-22T14:48:04.403Z,96214.02
2018-04-22T14:50:30.328Z,96199.99
2018-04-22T14:52:56.253Z,96202.73
2018-04-22T14:55:22.193Z,96205.81
2018-04-22T14:57:48.162Z,96207.84
2018-04-22T15:00:14.044Z,96203.70
2018-04-22T15:02:39.961Z,96201.22
2018-04-22T15:05:05.858Z,96194.69
2018-04-22T15:07:31.772Z,96208.50
2018-04-22T15:09:57.632Z,96201.67
2018-04-22T15:12:23.540Z,96208.29
2018-04-22T15:14:49.439Z,96194.69
2018-04-22T15:17:15.397Z,96193.75
2018-04-22T15:19:43.757Z,96195.16
2018-04-22T15:22:09.645Z,96192.23
2018-04-22T15:24:39.304Z,96190.92
2018-04-22T15:27:05.221Z,96192.71
2018-04-22T15:29:32.727Z,96188.70
2018-04-22T15:31:58.662Z,96202.29
2018-04-22T15:34:24.591Z,96186.26
2018-04-22T15:36:50.513Z,96192.06
2018-04-22T15:39:16.407Z,96189.94
2018-04-22T15:41:44.963Z,96192.53
2018-04-22T15:44:10.837Z,96187.81
2018-04-22T15:46:40.816Z,96182.92
2018-04-22T15:49:06.773Z,96177.59
2018-04-22T15:51:34.383Z,96182.22
2018-04-22T15:54:00.331Z,96180.28
2018-04-22T15:56:30.222Z,96180.16
2018-04-22T15:58:56.099Z,96176.73
2018-04-22T16:01:23.496Z,96183.86
2018-04-22T16:03:49.443Z,96179.91
2018-04-22T16:06:18.852Z,96180.51
2018-04-22T16:08:44.778Z,96184.50
2018-04-22T16:11:11.047Z,96186.17
2018-04-22T16:13:36.926Z,96181.39
2018-04-22T16:16:02.902Z,96179.19
2018-04-22T16:18:29.689Z,96180.67
2018-04-22T16:20:55.608Z,96185.45
2018-04-22T16:23:25.070Z,96173.48
2018-04-22T16:25:51.236Z,96175.34
2018-04-22T16:28:20.877Z,96179.38
2018-04-22T16:30:46.760Z,96175.72
2018-04-22T16:33:14.065Z,96177.75
2018-04-22T16:35:39.962Z,96175.00
2018-04-22T16:38:09.420Z,96187.01
2018-04-22T16:40:35.344Z,96181.21
2018-04-22T16:43:03.255Z,96180.89
2018-04-22T16:45:29.210Z,96184.97
2018-04-22T16:47:55.099Z,96180.02
2018-04-22T16:50:21.172Z,96181.70
2018-04-22T16:52:47.076Z,96180.34
2018-04-22T16:55:16.283Z,96182.00
2018-04-22T16:57:42.209Z,96178.94
2018-04-22T17:00:11.723Z,96182.05
2018-04-22T17:02:37.592Z,96180.52
2018-04-22T17:05:04.438Z,96186.20
2018-04-22T17:07:30.337Z,96189.20
2018-04-22T17:09:59.052Z,96191.39
2018-04-22T17:12:24.919Z,96193.34
2018-04-22T17:14:54.147Z,96190.08
2018-04-22T17:17:20.075Z,96198.32
2018-04-22T17:19:50.367Z,96195.85
2018-04-22T17:22:16.688Z,96203.56
2018-04-22T17:24:42.588Z,96200.98
2018-04-22T17:27:08.516Z,96205.37
2018-04-22T17:29:39.314Z,96213.51
2018-04-22T17:32:11.202Z,96219.15
2018-04-22T17:34:43.016Z,96223.86
2018-04-22T17:37:15.267Z,96231.35
2018-04-22T17:39:45.425Z,96234.41
2018-04-22T17:42:11.959Z,96244.88
2018-04-22T17:44:37.916Z,96239.55
2018-04-22T17:47:03.844Z,96240.62
2018-04-22T17:49:29.921Z,96252.03
2018-04-22T17:51:55.799Z,96250.08
2018-04-22T17:54:21.679Z,96252.02
2018-04-22T17:56:47.611Z,96251.71
2018-04-22T17:59:13.550Z,96255.62
2018-04-22T18:01:39.491Z,96256.98
2018-04-22T18:04:06.877Z,96252.69
2018-04-22T18:06:33.115Z,96257.94
2018-04-22T18:08:59.023Z,96259.39
2018-04-22T18:11:24.898Z,96263.34
2018-04-22T18:13:50.841Z,96261.88
2018-04-22T18:16:16.758Z,96260.75
2018-04-22T18:18:42.695Z,96265.70
2018-04-22T18:21:08.879Z,96269.87
2018-04-22T18:23:34.783Z,96270.17
2018-04-22T18:26:00.687Z,96274.34
2018-04-22T18:28:26.611Z,96276.23
2018-04-22T18:30:52.483Z,96276.56
2018-04-22T18:33:19.742Z,96281.78
2018-04-22T18:35:45.639Z,96290.70
2018-04-22T18:38:11.535Z,96289.30
2018-04-22T18:40:37.428Z,96291.61
2018-04-22T18:43:03.395Z,96294.63
2018-04-22T18:45:31.232Z,96297.77
2018-04-22T18:47:57.123Z,96299.61
2018-04-22T18:50:26.439Z,96299.78
2018-04-22T18:52:52.320Z,96304.20
2018-04-22T18:55:21.592Z,96305.09
2018-04-22T18:57:48.019Z,96302.02
2018-04-22T19:00:15.688Z,96310.08
2018-04-22T19:02:41.597Z,96311.14
2018-04-22T19:05:11.218Z,96318.73
2018-04-22T19:07:37.149Z,96319.05
2018-04-22T19:10:04.773Z,96319.50
2018-04-22T19:12:30.716Z,96323.75
2018-04-22T19:14:57.059Z,96319.91
2018-04-22T19:17:22.954Z,96319.48
2018-04-22T19:19:48.872Z,96321.23
2018-04-22T19:22:16.897Z,96326.17
2018-04-22T19:24:42.949Z,96328.58
2018-04-22T19:29:45.490Z,96329.05
2018-04-22T19:32:11.395Z,96325.19
2018-04-22T19:34:37.339Z,96327.59
2018-04-22T19:37:03.247Z,96335.91
2018-04-22T19:39:29.165Z,96336.75
2018-04-22T19:41:55.035Z,96332.08
2018-04-22T19:44:20.937Z,96339.27
2018-04-22T19:46:49.917Z,96341.54
2018-04-22T19:49:15.839Z,96343.77
2018-04-22T19:51:41.736Z,96339.31
2018-04-22T19:54:07.808Z,96344.23
2018-04-22T19:56:33.736Z,96336.59
2018-04-22T19:59:03.227Z,96350.07
2018-04-22T20:01:29.159Z,96342.75
2018-04-22T20:03:56.971Z,96333.78
2018-04-22T20:06:22.884Z,96343.45
2018-04-22T20:08:51.922Z,96345.17
2018-04-22T20:11:17.831Z,96347.77
2018-04-22T20:13:45.763Z,96350.00
2018-04-22T20:16:11.645Z,96348.31
2018-04-22T20:18:40.416Z,96342.07
2018-04-22T20:21:06.411Z,96354.39
2018-04-22T20:23:35.727Z,96350.52
2018-04-22T20:26:01.609Z,96349.83
2018-04-22T20:28:27.566Z,96356.81
2018-04-22T20:30:53.442Z,96349.05
2018-04-22T20:33:20.342Z,96346.73
2018-04-22T20:35:47.646Z,96347.05
2018-04-22T20:38:13.595Z,96356.33
2018-04-22T20:40:43.148Z,96350.93
2018-04-22T20:43:09.195Z,96353.03
2018-04-22T20:45:36.691Z,96354.09
2018-04-22T20:48:02.635Z,96357.50
2018-04-22T20:50:32.067Z,96362.83
2018-04-22T20:52:57.990Z,96365.05
2018-04-22T20:55:27.555Z,96365.25
2018-04-22T20:57:56.683Z,96366.08
2018-04-22T21:00:22.569Z,96355.91
2018-04-22T21:02:48.520Z,96366.58
2018-04-22T21:05:14.420Z,96366.19
2018-04-22T21:07:40.366Z,96361.14
2018-04-22T21:10:06.314Z,96370.94
2018-04-22T21:12:32.266Z,96371.80
2018-04-22T21:14:58.211Z,96366.91
2018-04-22T21:17:27.376Z,96369.41
2018-04-22T21:19:53.323Z,96372.87
2018-04-22T21:22:23.263Z,96374.36
2018-04-22T21:24:49.200Z,96376.30
2018-04-22T21:27:16.859Z,96375.87
2018-04-22T21:29:42.768Z,96380.03
2018-04-22T21:32:12.670Z,96380.92
2018-04-22T21:34:38.588Z,96388.13
2018-04-22T21:37:06.017Z,96381.84
2018-04-22T21:39:32.142Z,96382.83
2018-04-22T21:41:58.060Z,96389.03
2018-04-22T21:44:23.988Z,96385.29
2018-04-22T21:46:49.884Z,96393.23
2018-04-22T21:49:17.529Z,96395.06
2018-04-22T21:51:43.421Z,96400.12
2018-04-22T21:54:13.604Z,96403.16
2018-04-22T21:56:39.510Z,96412.07
2018-04-22T21:59:07.204Z,96405.38
2018-04-22T22:01:33.106Z,96408.05
2018-04-22T22:04:02.703Z,96406.31
2018-04-22T22:06:28.623Z,96413.67
2018-04-22T22:08:56.415Z,96409.65
2018-04-22T22:11:22.345Z,96412.38
2018-04-22T22:13:51.907Z,96412.42
2018-04-22T22:16:17.837Z,96420.66
2018-04-22T22:18:43.763Z,96416.86
2018-04-22T22:21:09.637Z,96422.03
2018-04-22T22:23:35.531Z,96419.57
2018-04-22T22:26:03.003Z,96423.81
2018-04-22T22:28:28.963Z,96427.98
2018-04-22T22:30:58.427Z,96429.75
2018-04-22T22:33:24.519Z,96421.91
2018-04-22T22:35:53.751Z,96431.05
2018-04-22T22:38:19.611Z,96421.65
2018-04-22T22:40:47.369Z,96427.27
2018-04-22T22:43:13.303Z,96430.60
2018-04-22T22:45:42.420Z,96437.03
2018-04-22T22:48:08.332Z,96438.80
2018-04-22T22:50:38.078Z,96437.19
2018-04-22T22:53:04.006Z,96436.19
2018-04-22T22:55:29.899Z,96437.99
2018-04-22T22:57:55.750Z,96430.12
2018-04-22T23:00:21.638Z,96435.26
2018-04-22T23:02:48.591Z,96434.06
2018-04-22T23:05:14.499Z,96434.05
2018-04-22T23:07:43.918Z,96432.16
2018-04-22T23:10:09.837Z,96425.94
2018-04-22T23:12:37.751Z,96433.28
2018-04-22T23:15:03.663Z,96430.66
2018-04-22T23:17:33.137Z,96422.48
2018-04-22T23:19:59.051Z,96428.27
2018-04-22T23:22:26.842Z,96427.70
2018-04-22T23:24:52.743Z,96429.80
2018-04-22T23:27:21.639Z,96426.49
2018-04-22T23:29:47.600Z,96430.95
2018-04-22T23:32:13.467Z,96425.32
2018-04-22T23:34:39.351Z,96417.05
2018-04-22T23:37:05.283Z,96422.27
2018-04-22T23:39:34.187Z,96417.21
2018-04-22T23:42:00.205Z,96419.20
2018-04-22T23:44:28.165Z,96426.69
2018-04-22T23:46:54.088Z,96419.77
2018-04-22T23:49:23.588Z,96424.31
2018-04-22T23:51:49.491Z,96422.70
2018-04-22T23:54:18.519Z,96421.75
2018-04-22T23:56:44.503Z,96422.33
2018-04-22T23:59:13.815Z,96421.28
